createdAt,value
2022-10-08T00:00:46.032Z,100.00
2022-10-08T00:03:13.861Z,100.00
2022-10-08T00:05:43.225Z,100.00
2022-10-08T00:08:11.434Z,100.00
2022-10-08T00:10:38.963Z,100.00
2022-10-08T00:13:06.519Z,100.00
2022-10-08T00:15:37.994Z,100.00
2022-10-08T00:18:05.606Z,100.00
2022-10-08T00:20:33.240Z,100.00
2022-10-08T00:23:02.495Z,100.00
2022-10-08T00:25:30.107Z,100.00
2022-10-08T00:27:57.640Z,100.00
2022-10-08T00:30:25.159Z,100.00
2022-10-08T00:32:56.500Z,100.00
2022-10-08T00:35:26.634Z,100.00
2022-10-08T00:37:54.163Z,100.00
2022-10-08T00:40:23.074Z,100.00
2022-10-08T00:42:50.615Z,100.00
2022-10-08T00:45:18.306Z,100.00
2022-10-08T00:47:48.970Z,100.00
2022-10-08T00:50:23.554Z,100.00
2022-10-08T00:52:54.992Z,100.00
2022-10-08T00:55:27.086Z,100.00
2022-10-08T00:57:58.217Z,100.00
2022-10-08T01:00:27.034Z,100.00
2022-10-08T01:02:54.699Z,100.00
2022-10-08T01:05:28.993Z,100.00
2022-10-08T01:08:05.406Z,100.00
2022-10-08T01:10:41.752Z,100.00
2022-10-08T01:13:18.127Z,100.00
2022-10-08T01:15:52.727Z,100.00
2022-10-08T01:18:27.223Z,100.00
2022-10-08T01:21:05.125Z,100.00
2022-10-08T01:24:06.527Z,100.00
2022-10-08T01:26:53.900Z,100.00
2022-10-08T01:29:28.706Z,100.00
2022-10-08T01:32:03.348Z,100.00
2022-10-08T01:34:35.950Z,100.00
2022-10-08T01:37:05.527Z,100.00
2022-10-08T01:39:37.043Z,100.00
2022-10-08T01:42:08.459Z,100.00
2022-10-08T01:44:41.792Z,100.00
2022-10-08T01:47:14.793Z,100.00
2022-10-08T01:49:46.766Z,100.00
2022-10-08T01:52:20.942Z,100.00
2022-10-08T01:54:52.478Z,100.00
2022-10-08T01:57:20.079Z,100.00
2022-10-08T01:59:55.606Z,100.00
2022-10-08T02:02:25.117Z,100.00
2022-10-08T02:04:55.085Z,100.00
2022-10-08T02:07:25.270Z,100.00
2022-10-08T02:10:01.656Z,100.00
2022-10-08T02:12:29.769Z,100.00
2022-10-08T02:14:59.932Z,100.00
2022-10-08T02:17:36.390Z,100.00
2022-10-08T02:20:12.180Z,100.00
2022-10-08T02:22:48.710Z,100.00
2022-10-08T02:25:24.805Z,100.00
2022-10-08T02:27:59.381Z,100.00
2022-10-08T02:30:36.734Z,100.00
2022-10-08T02:33:08.629Z,100.00
2022-10-08T02:35:41.202Z,100.00
2022-10-08T02:38:14.788Z,100.00
2022-10-08T02:40:45.503Z,100.00
2022-10-08T02:43:19.654Z,100.00
2022-10-08T02:45:53.944Z,100.00
2022-10-08T02:48:27.205Z,100.00
2022-10-08T02:50:58.600Z,100.00
2022-10-08T02:53:26.556Z,100.00
2022-10-08T02:56:06.997Z,100.00
2022-10-08T02:58:35.012Z,100.00
2022-10-08T03:01:10.617Z,100.00
2022-10-08T03:03:44.171Z,100.00
2022-10-08T03:06:13.709Z,100.00
2022-10-08T03:08:47.154Z,100.00
2022-10-08T03:11:15.325Z,100.00
2022-10-08T03:13:47.484Z,100.00
2022-10-08T03:16:20.642Z,100.00
2022-10-08T03:18:48.526Z,100.00
2022-10-08T03:21:16.817Z,100.00
2022-10-08T03:23:44.620Z,100.00
2022-10-08T03:26:12.137Z,100.00
2022-10-08T03:28:39.699Z,100.00
2022-10-08T03:31:07.458Z,100.00
2022-10-08T03:33:36.447Z,100.00
2022-10-08T03:36:04.769Z,100.00
2022-10-08T03:38:34.706Z,100.00
2022-10-08T03:41:02.581Z,100.00
2022-10-08T03:43:32.869Z,100.00
2022-10-08T03:46:00.690Z,100.00
2022-10-08T03:48:28.692Z,100.00
2022-10-08T03:51:00.077Z,100.00
2022-10-08T03:53:29.234Z,100.00
2022-10-08T03:55:57.097Z,100.00
2022-10-08T03:58:24.701Z,100.00
2022-10-08T04:01:03.196Z,100.00
2022-10-08T04:03:31.894Z,100.00
2022-10-08T04:06:01.146Z,100.00
2022-10-08T04:08:29.273Z,100.00
2022-10-08T04:10:56.997Z,100.00
2022-10-08T04:13:24.535Z,100.00
2022-10-08T04:15:52.097Z,100.00
2022-10-08T04:18:19.708Z,100.00
2022-10-08T04:20:47.236Z,100.00
2022-10-08T04:23:16.119Z,100.00
2022-10-08T04:25:50.937Z,100.00
2022-10-08T04:28:19.103Z,100.00
2022-10-08T04:30:56.066Z,100.00
2022-10-08T04:33:23.891Z,100.00
2022-10-08T04:35:52.711Z,100.00
2022-10-08T04:38:24.568Z,100.00
2022-10-08T04:41:02.752Z,100.00
2022-10-08T04:43:30.369Z,100.00
2022-10-08T04:45:57.991Z,100.00
2022-10-08T04:48:25.623Z,100.00
2022-10-08T04:50:56.501Z,100.00
2022-10-08T04:53:26.570Z,100.00
2022-10-08T04:55:54.922Z,100.00
2022-10-08T04:58:26.569Z,100.00
2022-10-08T05:00:54.518Z,100.00
2022-10-08T05:03:22.046Z,100.00
2022-10-08T05:05:49.577Z,100.00
2022-10-08T05:08:17.114Z,100.00
2022-10-08T05:10:50.186Z,100.00
2022-10-08T05:13:17.715Z,100.00
2022-10-08T05:15:45.339Z,100.00
2022-10-08T05:18:12.969Z,100.00
2022-10-08T05:20:40.575Z,100.00
2022-10-08T05:23:08.366Z,100.00
2022-10-08T05:25:36.609Z,100.00
2022-10-08T05:28:05.972Z,100.00
2022-10-08T05:30:33.546Z,100.00
2022-10-08T05:33:01.229Z,100.00
2022-10-08T05:35:28.783Z,100.00
2022-10-08T05:37:56.412Z,100.00
2022-10-08T05:40:24.256Z,100.00
2022-10-08T05:42:51.899Z,100.00
2022-10-08T05:45:20.763Z,100.00
2022-10-08T05:47:49.175Z,100.00
2022-10-08T05:50:17.103Z,100.00
2022-10-08T05:52:45.203Z,100.00
2022-10-08T05:55:13.031Z,100.00
2022-10-08T05:57:40.541Z,100.00
2022-10-08T06:00:09.353Z,100.00
2022-10-08T06:02:38.307Z,100.00
2022-10-08T06:05:06.631Z,100.00
2022-10-08T06:07:34.278Z,100.00
2022-10-08T06:10:01.826Z,100.00
2022-10-08T06:12:29.362Z,100.00
2022-10-08T06:14:56.987Z,100.00
2022-10-08T06:17:24.513Z,100.00
2022-10-08T06:19:53.370Z,100.00
2022-10-08T06:22:21.022Z,100.00
2022-10-08T06:24:48.680Z,100.00
2022-10-08T06:27:16.305Z,100.00
2022-10-08T06:29:43.906Z,100.00
2022-10-08T06:32:11.538Z,100.00
2022-10-08T06:34:39.077Z,100.00
2022-10-08T06:37:07.943Z,100.00
2022-10-08T06:39:35.479Z,100.00
2022-10-08T06:42:02.993Z,100.00
2022-10-08T06:44:30.530Z,100.00
2022-10-08T06:46:58.218Z,100.00
2022-10-08T06:49:26.713Z,100.00
2022-10-08T06:51:54.277Z,100.00
2022-10-08T06:54:26.045Z,100.00
2022-10-08T06:56:53.662Z,100.00
2022-10-08T06:59:21.198Z,100.00
2022-10-08T07:01:48.740Z,100.00
2022-10-08T07:04:16.338Z,100.00
2022-10-08T07:06:44.303Z,100.00
2022-10-08T07:09:13.343Z,100.00
2022-10-08T07:11:42.231Z,100.00
2022-10-08T07:14:09.768Z,100.00
2022-10-08T07:16:37.334Z,100.00
2022-10-08T07:19:04.905Z,100.00
2022-10-08T07:21:32.504Z,100.00
2022-10-08T07:24:01.762Z,100.00
2022-10-08T07:26:32.367Z,100.00
2022-10-08T07:29:03.666Z,100.00
2022-10-08T07:31:32.828Z,100.00
2022-10-08T07:34:01.917Z,100.00
2022-10-08T07:36:30.297Z,100.00
2022-10-08T07:38:59.279Z,100.00
2022-10-08T07:41:27.081Z,100.00
2022-10-08T07:43:58.359Z,100.00
2022-10-08T07:46:27.728Z,100.00
2022-10-08T07:48:56.761Z,100.00
2022-10-08T07:51:24.509Z,100.00
2022-10-08T07:53:52.029Z,100.00
2022-10-08T07:56:23.475Z,100.00
2022-10-08T07:58:51.513Z,100.00
2022-10-08T08:01:21.262Z,100.00
2022-10-08T08:03:55.263Z,100.00
2022-10-08T08:06:24.014Z,100.00
2022-10-08T08:08:52.165Z,100.00
2022-10-08T08:11:23.135Z,100.00
2022-10-08T08:13:51.301Z,100.00
2022-10-08T08:16:20.845Z,100.00
2022-10-08T08:18:50.805Z,100.00
2022-10-08T08:21:21.995Z,100.00
2022-10-08T08:23:51.823Z,100.00
2022-10-08T08:26:21.010Z,100.00
2022-10-08T08:28:52.498Z,100.00
2022-10-08T08:31:22.767Z,100.00
2022-10-08T08:33:51.814Z,100.00
2022-10-08T08:36:24.636Z,100.00
2022-10-08T08:38:52.246Z,100.00
2022-10-08T08:41:39.239Z,100.00
2022-10-08T08:44:11.801Z,100.00
2022-10-08T08:46:45.137Z,100.00
2022-10-08T08:49:17.758Z,100.00
2022-10-08T08:51:47.004Z,100.00
2022-10-08T08:54:14.672Z,100.00
2022-10-08T08:56:42.521Z,100.00
2022-10-08T08:59:24.395Z,100.00
2022-10-08T09:01:54.314Z,100.00
2022-10-08T09:04:25.902Z,100.00
2022-10-08T09:06:57.223Z,100.00
2022-10-08T09:09:28.181Z,97.14
2022-10-08T09:11:56.491Z,97.01
2022-10-08T09:14:35.758Z,96.15
2022-10-08T09:17:14.923Z,97.16
2022-10-08T09:19:42.830Z,96.56
2022-10-08T09:22:22.174Z,99.11
2022-10-08T09:24:51.886Z,99.05
2022-10-08T09:27:19.593Z,97.31
2022-10-08T09:29:47.430Z,98.05
2022-10-08T09:32:17.882Z,96.88
2022-10-08T09:34:48.173Z,96.79
2022-10-08T09:37:24.406Z,96.98
2022-10-08T09:40:21.251Z,97.80
2022-10-08T09:43:13.658Z,95.58
2022-10-08T09:45:44.134Z,93.71
2022-10-08T09:48:20.868Z,91.81
2022-10-08T09:50:52.666Z,90.02
2022-10-08T09:53:23.335Z,90.54
2022-10-08T09:55:56.290Z,93.54
2022-10-08T09:58:24.400Z,89.89
2022-10-08T10:01:02.170Z,85.91
2022-10-08T10:03:30.059Z,84.66
2022-10-08T10:05:59.615Z,81.44
2022-10-08T10:08:51.612Z,80.09
2022-10-08T10:11:25.410Z,82.17
2022-10-08T10:13:52.978Z,81.32
2022-10-08T10:16:26.383Z,79.11
2022-10-08T10:18:59.135Z,79.99
2022-10-08T10:21:35.800Z,81.56
2022-10-08T10:24:20.826Z,83.37
2022-10-08T10:26:51.229Z,86.05
2022-10-08T10:29:22.270Z,88.90
2022-10-08T10:31:55.117Z,92.99
2022-10-08T10:34:26.577Z,93.68
2022-10-08T10:36:58.474Z,95.64
2022-10-08T10:39:37.421Z,97.41
2022-10-08T10:42:15.337Z,98.63
2022-10-08T10:44:52.148Z,94.13
2022-10-08T10:47:22.720Z,93.13
2022-10-08T10:49:51.839Z,87.07
2022-10-08T10:52:49.909Z,84.11
2022-10-08T10:55:24.302Z,81.64
2022-10-08T10:58:10.733Z,79.98
2022-10-08T11:00:46.925Z,80.79
2022-10-08T11:03:22.762Z,80.81
2022-10-08T11:05:59.542Z,77.46
2022-10-08T11:08:36.698Z,77.66
2022-10-08T11:11:18.513Z,79.59
2022-10-08T11:13:58.966Z,79.07
2022-10-08T11:16:40.421Z,76.98
2022-10-08T11:19:18.365Z,76.81
2022-10-08T11:21:56.418Z,75.53
2022-10-08T11:24:38.140Z,77.09
2022-10-08T11:27:13.566Z,78.91
2022-10-08T11:29:48.563Z,86.72
2022-10-08T11:32:19.145Z,93.75
2022-10-08T11:34:53.120Z,97.73
2022-10-08T11:37:27.805Z,100.00
2022-10-08T11:40:04.134Z,100.00
2022-10-08T11:42:47.483Z,100.00
2022-10-08T11:45:31.612Z,100.00
2022-10-08T11:48:00.721Z,100.00
2022-10-08T11:50:31.534Z,100.00
2022-10-08T11:53:14.765Z,100.00
2022-10-08T11:55:51.186Z,99.34
2022-10-08T11:58:23.814Z,93.33
2022-10-08T12:00:55.163Z,94.10
2022-10-08T12:03:28.127Z,95.32
2022-10-08T12:05:58.644Z,95.98
2022-10-08T12:08:55.435Z,96.31
2022-10-08T12:11:52.330Z,95.88
2022-10-08T12:14:33.562Z,97.02
2022-10-08T12:17:11.518Z,99.35
2022-10-08T12:20:06.997Z,100.00
2022-10-08T12:22:46.003Z,93.73
2022-10-08T12:25:34.567Z,88.60
2022-10-08T12:28:55.985Z,90.57
2022-10-08T12:31:39.819Z,87.73
2022-10-08T12:34:17.635Z,84.91
2022-10-08T12:36:55.005Z,83.90
2022-10-08T12:39:33.987Z,88.04
2022-10-08T12:42:10.498Z,88.67
2022-10-08T12:44:46.430Z,87.05
2022-10-08T12:47:26.362Z,83.41
2022-10-08T12:49:59.130Z,84.63
2022-10-08T12:52:27.707Z,81.94
2022-10-08T12:54:57.918Z,80.06
2022-10-08T12:57:30.268Z,79.94
2022-10-08T13:00:00.300Z,77.15
2022-10-08T13:02:37.590Z,80.23
2022-10-08T13:05:06.158Z,81.13
2022-10-08T13:07:35.704Z,77.37
2022-10-08T13:10:17.181Z,78.23
2022-10-08T13:12:46.166Z,76.05
2022-10-08T13:15:23.852Z,77.18
2022-10-08T13:17:53.526Z,75.84
2022-10-08T13:20:23.137Z,77.73
2022-10-08T13:22:51.322Z,77.19
2022-10-08T13:25:36.426Z,78.47
2022-10-08T13:28:15.578Z,79.18
2022-10-08T13:30:46.358Z,78.78
2022-10-08T13:33:19.607Z,78.73
2022-10-08T13:35:53.599Z,81.36
2022-10-08T13:38:24.691Z,77.70
2022-10-08T13:40:54.950Z,77.90
2022-10-08T13:43:23.021Z,78.60
2022-10-08T13:45:50.542Z,79.64
2022-10-08T13:48:19.409Z,78.58
2022-10-08T13:50:48.673Z,79.03
2022-10-08T13:53:17.938Z,80.38
2022-10-08T13:55:47.211Z,81.28
2022-10-08T13:58:16.646Z,82.07
2022-10-08T14:00:46.713Z,81.29
2022-10-08T14:03:14.547Z,80.31
2022-10-08T14:05:47.027Z,81.21
2022-10-08T14:08:18.070Z,81.12
2022-10-08T14:10:45.865Z,81.58
2022-10-08T14:13:14.582Z,82.05
2022-10-08T14:15:42.530Z,82.31
2022-10-08T14:18:10.209Z,82.21
2022-10-08T14:20:39.161Z,83.08
2022-10-08T14:23:08.196Z,84.07
2022-10-08T14:25:35.726Z,82.03
2022-10-08T14:28:03.463Z,79.88
2022-10-08T14:30:31.019Z,82.31
2022-10-08T14:32:58.638Z,80.09
2022-10-08T14:35:26.250Z,78.25
2022-10-08T14:37:53.778Z,80.98
2022-10-08T14:40:23.367Z,80.64
2022-10-08T14:42:51.607Z,80.51
2022-10-08T14:45:19.865Z,81.88
2022-10-08T14:47:47.405Z,83.54
2022-10-08T14:50:15.026Z,84.79
2022-10-08T14:52:44.596Z,83.36
2022-10-08T14:55:13.251Z,84.62
2022-10-08T14:57:42.627Z,81.34
2022-10-08T15:00:11.266Z,84.17
2022-10-08T15:02:38.907Z,85.61
2022-10-08T15:05:07.277Z,90.94
2022-10-08T15:07:34.816Z,93.68
2022-10-08T15:10:02.472Z,95.64
2022-10-08T15:12:30.003Z,95.06
2022-10-08T15:14:59.026Z,94.91
2022-10-08T15:17:26.612Z,95.55
2022-10-08T15:19:54.189Z,94.11
2022-10-08T15:22:21.821Z,93.78
2022-10-08T15:24:49.355Z,96.06
2022-10-08T15:27:20.653Z,97.12
2022-10-08T15:29:48.611Z,95.65
2022-10-08T15:32:17.497Z,87.94
2022-10-08T15:34:45.022Z,89.96
2022-10-08T15:37:12.551Z,89.38
2022-10-08T15:39:40.074Z,89.52
2022-10-08T15:42:08.061Z,89.97
2022-10-08T15:44:35.667Z,90.43
2022-10-08T15:47:05.926Z,91.27
2022-10-08T15:49:37.103Z,92.27
2022-10-08T15:52:06.012Z,93.25
2022-10-08T15:54:35.583Z,93.53
2022-10-08T15:57:03.104Z,93.76
2022-10-08T15:59:30.870Z,93.85
2022-10-08T16:01:58.429Z,94.21
2022-10-08T16:04:26.262Z,95.02
2022-10-08T16:06:55.525Z,95.27
2022-10-08T16:09:23.859Z,95.48
2022-10-08T16:11:52.042Z,95.58
2022-10-08T16:14:21.163Z,95.56
2022-10-08T16:16:49.602Z,96.28
2022-10-08T16:19:19.225Z,97.50
2022-10-08T16:21:48.539Z,97.42
2022-10-08T16:24:18.411Z,97.85
2022-10-08T16:26:48.590Z,98.74
2022-10-08T16:29:18.239Z,99.42
2022-10-08T16:31:46.870Z,100.00
2022-10-08T16:34:16.169Z,100.00
2022-10-08T16:36:43.794Z,100.00
2022-10-08T16:39:13.271Z,100.00
2022-10-08T16:41:42.350Z,100.00
2022-10-08T16:44:13.171Z,100.00
2022-10-08T16:46:42.637Z,100.00
2022-10-08T16:49:16.446Z,100.00
2022-10-08T16:51:48.121Z,100.00
2022-10-08T16:54:17.581Z,100.00
2022-10-08T16:56:47.357Z,100.00
2022-10-08T16:59:17.296Z,100.00
2022-10-08T17:01:46.506Z,100.00
2022-10-08T17:04:15.590Z,100.00
2022-10-08T17:06:44.420Z,100.00
2022-10-08T17:09:12.054Z,100.00
2022-10-08T17:11:40.015Z,100.00
2022-10-08T17:14:10.148Z,100.00
2022-10-08T17:16:38.134Z,100.00
2022-10-08T17:19:06.581Z,100.00
2022-10-08T17:21:34.994Z,100.00
2022-10-08T17:24:03.451Z,100.00
2022-10-08T17:26:31.934Z,100.00
2022-10-08T17:29:04.465Z,100.00
2022-10-08T17:31:34.182Z,100.00
2022-10-08T17:34:02.648Z,100.00
2022-10-08T17:36:31.794Z,100.00
2022-10-08T17:39:00.815Z,100.00
2022-10-08T17:41:30.620Z,100.00
2022-10-08T17:44:00.226Z,100.00
2022-10-08T17:46:29.717Z,100.00
2022-10-08T17:48:58.953Z,100.00
2022-10-08T17:51:28.930Z,100.00
2022-10-08T17:53:58.257Z,100.00
2022-10-08T17:56:26.446Z,100.00
2022-10-08T17:58:54.635Z,100.00
2022-10-08T18:01:23.915Z,100.00
2022-10-08T18:03:53.279Z,100.00
2022-10-08T18:06:23.083Z,100.00
2022-10-08T18:08:55.517Z,100.00
2022-10-08T18:11:23.409Z,100.00
2022-10-08T18:13:51.001Z,100.00
2022-10-08T18:16:20.012Z,100.00
2022-10-08T18:18:48.574Z,100.00
2022-10-08T18:21:18.036Z,100.00
2022-10-08T18:23:48.132Z,100.00
2022-10-08T18:26:19.344Z,100.00
2022-10-08T18:28:48.164Z,100.00
2022-10-08T18:31:16.603Z,100.00
2022-10-08T18:33:46.258Z,100.00
2022-10-08T18:36:16.237Z,100.00
2022-10-08T18:38:45.781Z,100.00
2022-10-08T18:41:16.887Z,100.00
2022-10-08T18:43:45.786Z,100.00
2022-10-08T18:46:14.195Z,100.00
2022-10-08T18:48:42.128Z,100.00
2022-10-08T18:51:11.958Z,100.00
2022-10-08T18:53:41.382Z,100.00
2022-10-08T18:56:10.569Z,100.00
2022-10-08T18:58:39.457Z,100.00
2022-10-08T19:01:08.220Z,100.00
2022-10-08T19:03:35.817Z,100.00
2022-10-08T19:06:07.027Z,100.00
2022-10-08T19:08:34.559Z,100.00
2022-10-08T19:11:09.597Z,100.00
2022-10-08T19:13:37.222Z,100.00
2022-10-08T19:16:13.035Z,100.00
2022-10-08T19:18:42.573Z,100.00
2022-10-08T19:21:10.282Z,100.00
2022-10-08T19:23:37.873Z,100.00
2022-10-08T19:26:05.952Z,100.00
2022-10-08T19:28:33.867Z,100.00
2022-10-08T19:31:01.752Z,100.00
2022-10-08T19:33:30.671Z,100.00
2022-10-08T19:36:01.804Z,100.00
2022-10-08T19:38:29.418Z,100.00
2022-10-08T19:40:56.970Z,100.00
2022-10-08T19:43:24.542Z,100.00
2022-10-08T19:45:52.070Z,100.00
2022-10-08T19:48:19.619Z,100.00
2022-10-08T19:50:48.858Z,100.00
2022-10-08T19:53:16.394Z,100.00
2022-10-08T19:55:44.283Z,100.00
2022-10-08T19:58:12.170Z,100.00
2022-10-08T20:00:39.734Z,100.00
2022-10-08T20:03:07.293Z,100.00
2022-10-08T20:05:35.002Z,100.00
2022-10-08T20:08:03.902Z,100.00
2022-10-08T20:10:31.435Z,100.00
2022-10-08T20:12:58.954Z,100.00
2022-10-08T20:15:26.604Z,100.00
2022-10-08T20:17:54.129Z,100.00
2022-10-08T20:20:33.008Z,100.00
2022-10-08T20:23:01.008Z,100.00
2022-10-08T20:25:29.938Z,100.00
2022-10-08T20:27:57.493Z,100.00
2022-10-08T20:30:25.111Z,100.00
2022-10-08T20:32:52.664Z,100.00
2022-10-08T20:35:20.547Z,100.00
2022-10-08T20:37:48.085Z,100.00
2022-10-08T20:40:15.773Z,100.00
2022-10-08T20:42:44.699Z,100.00
2022-10-08T20:45:12.839Z,100.00
2022-10-08T20:47:40.703Z,100.00
2022-10-08T20:50:08.786Z,100.00
2022-10-08T20:52:36.330Z,100.00
2022-10-08T20:55:03.865Z,100.00
2022-10-08T20:57:31.429Z,100.00
2022-10-08T21:00:00.285Z,100.00
2022-10-08T21:02:27.889Z,100.00
2022-10-08T21:04:55.447Z,100.00
2022-10-08T21:07:22.969Z,100.00
2022-10-08T21:09:52.544Z,100.00
2022-10-08T21:12:20.070Z,100.00
2022-10-08T21:14:47.610Z,100.00
2022-10-08T21:17:16.482Z,100.00
2022-10-08T21:19:44.002Z,100.00
2022-10-08T21:22:11.515Z,100.00
2022-10-08T21:24:39.024Z,100.00
2022-10-08T21:27:06.545Z,100.00
2022-10-08T21:29:34.106Z,100.00
2022-10-08T21:32:01.742Z,100.00
2022-10-08T21:34:30.651Z,100.00
2022-10-08T21:36:58.174Z,100.00
2022-10-08T21:39:26.050Z,100.00
2022-10-08T21:41:54.832Z,100.00
2022-10-08T21:44:22.622Z,100.00
2022-10-08T21:46:50.166Z,100.00
2022-10-08T21:49:20.398Z,100.00
2022-10-08T21:51:49.638Z,100.00
2022-10-08T21:54:17.371Z,100.00
2022-10-08T21:56:45.436Z,100.00
2022-10-08T21:59:14.795Z,100.00
2022-10-08T22:01:44.027Z,100.00
2022-10-08T22:04:13.394Z,100.00
2022-10-08T22:06:42.643Z,100.00
2022-10-08T22:09:13.865Z,100.00
2022-10-08T22:11:41.752Z,100.00
2022-10-08T22:14:09.679Z,100.00
2022-10-08T22:16:38.095Z,100.00
2022-10-08T22:19:06.091Z,100.00
2022-10-08T22:21:34.109Z,100.00
2022-10-08T22:24:01.630Z,100.00
2022-10-08T22:26:32.520Z,100.00
2022-10-08T22:29:00.847Z,100.00
2022-10-08T22:31:29.550Z,100.00
2022-10-08T22:33:57.361Z,100.00
2022-10-08T22:36:26.729Z,100.00
2022-10-08T22:38:56.360Z,100.00
2022-10-08T22:41:26.103Z,100.00
2022-10-08T22:43:55.470Z,100.00
2022-10-08T22:46:25.835Z,100.00
2022-10-08T22:48:53.458Z,100.00
2022-10-08T22:51:22.289Z,100.00
2022-10-08T22:53:50.222Z,100.00
2022-10-08T22:56:20.513Z,100.00
2022-10-08T22:58:49.096Z,100.00
2022-10-08T23:01:19.701Z,100.00
2022-10-08T23:03:48.262Z,100.00
2022-10-08T23:06:18.585Z,100.00
2022-10-08T23:08:47.814Z,100.00
2022-10-08T23:11:16.785Z,100.00
2022-10-08T23:13:45.758Z,100.00
2022-10-08T23:16:15.662Z,100.00
2022-10-08T23:18:46.703Z,100.00
2022-10-08T23:21:16.447Z,100.00
2022-10-08T23:23:45.123Z,100.00
2022-10-08T23:26:13.573Z,100.00
2022-10-08T23:28:41.791Z,100.00
2022-10-08T23:31:12.025Z,100.00
2022-10-08T23:33:42.013Z,100.00
2022-10-08T23:36:12.997Z,100.00
2022-10-08T23:38:40.823Z,100.00
2022-10-08T23:41:10.257Z,100.00
2022-10-08T23:43:39.816Z,100.00
2022-10-08T23:46:08.441Z,100.00
2022-10-08T23:48:36.174Z,100.00
2022-10-08T23:51:05.065Z,100.00
2022-10-08T23:53:34.643Z,100.00
2022-10-08T23:56:02.220Z,100.00
2022-10-08T23:58:30.030Z,100.00
